createdAt,value
2019-04-27T00:00:00.074Z,10.94
2019-04-27T00:02:49.932Z,10.90
2019-04-27T00:05:32.078Z,10.88
2019-04-27T00:08:05.030Z,10.84
2019-04-27T00:10:55.521Z,10.94
2019-04-27T00:13:26.963Z,10.92
2019-04-27T00:15:59.378Z,10.98
2019-04-27T00:18:37.936Z,10.96
2019-04-27T00:21:16.013Z,10.90
2019-04-27T00:23:49.437Z,10.88
2019-04-27T00:26:20.143Z,10.88
2019-04-27T00:28:50.877Z,10.92
2019-04-27T00:31:21.328Z,10.90
2019-04-27T00:33:53.554Z,10.84
2019-04-27T00:36:38.441Z,10.87
2019-04-27T00:39:13.905Z,10.92
2019-04-27T00:41:45.237Z,10.90
2019-04-27T00:44:15.980Z,10.82
2019-04-27T00:46:46.817Z,10.84
2019-04-27T00:49:20.097Z,10.93
2019-04-27T00:51:49.465Z,10.92
2019-04-27T00:54:20.243Z,10.92
2019-04-27T00:56:52.932Z,10.96
2019-04-27T00:59:43.141Z,11.04
2019-04-27T01:02:15.790Z,11.04
2019-04-27T01:04:46.552Z,10.89
2019-04-27T01:07:17.366Z,10.85
2019-04-27T01:09:48.507Z,11.02
2019-04-27T01:12:19.482Z,10.94
2019-04-27T01:14:50.997Z,10.94
2019-04-27T01:17:21.869Z,10.98
2019-04-27T01:19:52.695Z,10.93
2019-04-27T01:22:25.058Z,11.02
2019-04-27T01:24:55.775Z,10.96
2019-04-27T01:27:28.982Z,11.04
2019-04-27T01:29:59.914Z,11.09
2019-04-27T01:32:30.778Z,11.06
2019-04-27T01:35:01.615Z,11.06
2019-04-27T01:37:33.954Z,11.04
2019-04-27T01:40:05.338Z,11.17
2019-04-27T01:42:36.244Z,11.16
2019-04-27T01:45:09.499Z,11.14
2019-04-27T01:47:40.309Z,11.17
2019-04-27T01:50:11.345Z,11.14
2019-04-27T01:52:42.081Z,11.20
2019-04-27T01:55:13.101Z,11.13
2019-04-27T01:57:43.860Z,11.12
2019-04-27T02:00:29.065Z,11.13
2019-04-27T02:03:04.432Z,11.14
2019-04-27T02:05:36.851Z,11.20
2019-04-27T02:08:09.424Z,11.30
2019-04-27T02:10:40.351Z,11.32
2019-04-27T02:13:11.304Z,11.22
2019-04-27T02:15:42.023Z,11.20
2019-04-27T02:18:14.124Z,11.22
2019-04-27T02:20:44.649Z,11.22
2019-04-27T02:23:15.556Z,11.24
2019-04-27T02:25:46.349Z,11.05
2019-04-27T02:28:24.500Z,11.16
2019-04-27T02:31:14.895Z,11.03
2019-04-27T02:33:50.122Z,11.04
2019-04-27T02:36:21.072Z,10.98
2019-04-27T02:38:52.013Z,10.96
2019-04-27T02:41:22.763Z,10.91
2019-04-27T02:43:59.532Z,10.84
2019-04-27T02:46:31.553Z,10.80
2019-04-27T02:49:06.282Z,10.84
2019-04-27T02:51:52.307Z,10.83
2019-04-27T02:54:23.141Z,10.88
2019-04-27T02:56:53.905Z,10.83
2019-04-27T02:59:24.803Z,10.83
2019-04-27T03:02:03.137Z,10.82
2019-04-27T03:04:33.990Z,10.83
2019-04-27T03:07:04.808Z,10.82
2019-04-27T03:09:35.563Z,10.68
2019-04-27T03:12:06.389Z,10.72
2019-04-27T03:14:50.349Z,10.72
2019-04-27T03:17:22.766Z,10.74
2019-04-27T03:20:10.735Z,10.80
2019-04-27T03:22:43.435Z,10.85
2019-04-27T03:25:17.030Z,10.83
2019-04-27T03:28:02.514Z,10.76
2019-04-27T03:30:36.065Z,10.76
2019-04-27T03:33:05.841Z,10.70
2019-04-27T03:35:37.336Z,10.78
2019-04-27T03:38:10.414Z,10.75
2019-04-27T03:40:42.335Z,10.86
2019-04-27T03:43:14.994Z,10.86
2019-04-27T03:45:45.830Z,10.83
2019-04-27T03:48:16.251Z,10.94
2019-04-27T03:51:03.514Z,10.82
2019-04-27T03:53:36.174Z,10.82
2019-04-27T03:56:19.878Z,10.86
2019-04-27T03:58:51.655Z,10.82
2019-04-27T04:01:22.392Z,10.90
2019-04-27T04:03:53.363Z,10.94
2019-04-27T04:06:23.890Z,10.89
2019-04-27T04:08:55.238Z,10.88
2019-04-27T04:11:33.200Z,10.94
2019-04-27T04:14:20.938Z,10.88
2019-04-27T04:17:02.731Z,10.84
2019-04-27T04:19:47.692Z,10.81
2019-04-27T04:22:04.818Z,10.86
2019-04-27T04:24:35.680Z,10.80
2019-04-27T04:27:06.179Z,10.90
2019-04-27T04:29:39.266Z,10.89
2019-04-27T04:32:10.670Z,10.92
2019-04-27T04:34:41.276Z,10.98
2019-04-27T04:37:12.013Z,10.92
2019-04-27T04:39:42.841Z,10.96
2019-04-27T04:42:31.712Z,10.92
2019-04-27T04:45:20.456Z,10.88
2019-04-27T04:47:55.698Z,11.02
2019-04-27T04:50:26.532Z,11.03
2019-04-27T04:52:59.814Z,11.03
2019-04-27T04:55:30.537Z,11.06
2019-04-27T04:58:01.438Z,11.12
2019-04-27T05:00:31.926Z,11.04
2019-04-27T05:03:02.763Z,11.12
2019-04-27T05:05:33.602Z,11.12
2019-04-27T05:08:04.439Z,11.16
2019-04-27T05:10:35.276Z,11.14
2019-04-27T05:13:06.093Z,11.19
2019-04-27T05:15:36.499Z,11.20
2019-04-27T05:18:09.087Z,11.28
2019-04-27T05:20:41.592Z,11.18
2019-04-27T05:23:12.427Z,11.24
2019-04-27T05:25:43.252Z,11.33
2019-04-27T05:28:14.096Z,11.34
2019-04-27T05:30:44.923Z,11.44
2019-04-27T05:33:15.758Z,11.50
2019-04-27T05:35:46.493Z,11.56
2019-04-27T05:38:19.121Z,11.46
2019-04-27T05:40:49.972Z,11.48
2019-04-27T05:43:25.651Z,11.52
2019-04-27T05:46:21.922Z,11.61
2019-04-27T05:48:52.838Z,11.59
2019-04-27T05:51:23.575Z,11.59
2019-04-27T05:53:54.055Z,11.58
2019-04-27T05:56:24.869Z,11.55
2019-04-27T05:58:55.559Z,11.79
2019-04-27T06:01:26.304Z,11.78
2019-04-27T06:03:58.935Z,11.88
2019-04-27T06:06:29.649Z,11.94
2019-04-27T06:09:00.435Z,11.87
2019-04-27T06:11:31.305Z,11.97
2019-04-27T06:14:02.129Z,11.97
2019-04-27T06:16:32.971Z,11.96
2019-04-27T06:19:03.809Z,11.92
2019-04-27T06:21:34.635Z,12.12
2019-04-27T06:24:05.370Z,12.61
2019-04-27T06:26:36.281Z,13.50
2019-04-27T06:29:07.140Z,14.25
2019-04-27T06:31:39.646Z,14.45
2019-04-27T06:34:10.814Z,14.24
2019-04-27T06:36:41.717Z,14.54
2019-04-27T06:39:12.755Z,14.32
2019-04-27T06:41:43.711Z,14.21
2019-04-27T06:44:14.550Z,14.04
2019-04-27T06:46:45.207Z,13.98
2019-04-27T06:49:15.991Z,13.90
2019-04-27T06:51:46.849Z,13.82
2019-04-27T06:54:19.728Z,13.53
2019-04-27T06:56:50.158Z,13.46
2019-04-27T06:59:22.235Z,13.41
2019-04-27T07:01:53.185Z,13.46
2019-04-27T07:04:24.358Z,13.30
2019-04-27T07:06:56.189Z,13.20
2019-04-27T07:09:27.331Z,13.26
2019-04-27T07:11:59.315Z,13.21
2019-04-27T07:14:30.189Z,13.33
2019-04-27T07:17:01.231Z,13.30
2019-04-27T07:19:32.199Z,13.28
2019-04-27T07:22:02.899Z,13.25
2019-04-27T07:24:33.774Z,13.30
2019-04-27T07:27:05.117Z,13.49
2019-04-27T07:29:35.941Z,13.66
2019-04-27T07:32:06.786Z,13.62
2019-04-27T07:34:38.795Z,13.76
2019-04-27T07:37:11.105Z,13.84
2019-04-27T07:39:42.241Z,13.86
2019-04-27T07:42:13.087Z,14.06
2019-04-27T07:44:45.457Z,14.10
2019-04-27T07:47:31.041Z,14.12
2019-04-27T07:50:01.999Z,14.20
2019-04-27T07:52:33.052Z,14.28
2019-04-27T07:55:04.401Z,14.41
2019-04-27T07:57:35.221Z,14.06
2019-04-27T08:00:09.530Z,14.14
2019-04-27T08:02:40.358Z,14.09
2019-04-27T08:05:11.119Z,14.00
2019-04-27T08:07:41.947Z,13.98
2019-04-27T08:10:12.601Z,13.80
2019-04-27T08:12:43.414Z,13.64
2019-04-27T08:15:14.470Z,13.81
2019-04-27T08:17:45.303Z,13.84
2019-04-27T08:20:16.074Z,13.75
2019-04-27T08:22:46.971Z,13.81
2019-04-27T08:25:18.949Z,13.92
2019-04-27T08:28:06.777Z,14.02
2019-04-27T08:30:39.423Z,14.10
2019-04-27T08:33:11.919Z,14.16
2019-04-27T08:35:42.785Z,14.34
2019-04-27T08:38:13.812Z,14.32
2019-04-27T08:40:49.293Z,14.41
2019-04-27T08:43:20.202Z,14.42
2019-04-27T08:45:51.034Z,14.40
2019-04-27T08:48:33.831Z,14.39
2019-04-27T08:50:54.350Z,14.52
2019-04-27T08:53:25.158Z,14.66
2019-04-27T08:55:55.989Z,14.78
2019-04-27T08:58:28.493Z,14.94
2019-04-27T09:00:59.198Z,15.14
2019-04-27T09:03:30.059Z,15.27
2019-04-27T09:06:00.562Z,15.27
2019-04-27T09:08:51.172Z,15.56
2019-04-27T09:11:26.208Z,15.65
2019-04-27T09:13:58.981Z,15.60
2019-04-27T09:16:34.775Z,15.58
2019-04-27T09:19:08.712Z,15.66
2019-04-27T09:22:10.339Z,15.76
2019-04-27T09:24:30.594Z,15.82
2019-04-27T09:27:01.342Z,15.88
2019-04-27T09:29:32.294Z,15.86
2019-04-27T09:32:03.232Z,16.00
2019-04-27T09:34:34.096Z,16.06
2019-04-27T09:37:06.089Z,16.23
2019-04-27T09:39:37.177Z,16.30
2019-04-27T09:42:07.609Z,16.03
2019-04-27T09:44:38.850Z,16.25
2019-04-27T09:47:09.298Z,16.31
2019-04-27T09:49:40.102Z,16.44
2019-04-27T09:52:23.377Z,16.48
2019-04-27T09:54:43.414Z,16.59
2019-04-27T09:57:15.894Z,16.60
2019-04-27T09:59:47.170Z,16.89
2019-04-27T10:02:17.956Z,16.88
2019-04-27T10:04:50.239Z,16.81
2019-04-27T10:07:21.076Z,16.81
2019-04-27T10:09:52.116Z,16.56
2019-04-27T10:12:22.958Z,16.66
2019-04-27T10:14:55.873Z,16.81
2019-04-27T10:17:26.396Z,16.95
2019-04-27T10:19:57.198Z,16.71
2019-04-27T10:22:40.365Z,16.89
2019-04-27T10:25:00.966Z,17.06
2019-04-27T10:27:31.764Z,17.08
2019-04-27T10:30:02.786Z,17.18
2019-04-27T10:32:36.109Z,17.36
2019-04-27T10:35:07.666Z,17.54
2019-04-27T10:37:38.714Z,17.48
2019-04-27T10:40:09.625Z,17.53
2019-04-27T10:42:40.623Z,17.17
2019-04-27T10:45:13.224Z,17.46
2019-04-27T10:47:45.948Z,17.54
2019-04-27T10:50:16.864Z,17.46
2019-04-27T10:52:53.814Z,17.49
2019-04-27T10:55:19.960Z,17.59
2019-04-27T10:57:50.500Z,17.61
2019-04-27T11:00:23.114Z,17.75
2019-04-27T11:02:53.946Z,17.97
2019-04-27T11:05:38.375Z,18.16
2019-04-27T11:08:09.096Z,18.03
2019-04-27T11:10:39.886Z,18.09
2019-04-27T11:13:10.774Z,18.18
2019-04-27T11:15:42.095Z,17.97
2019-04-27T11:18:12.858Z,18.23
2019-04-27T11:20:46.840Z,18.34
2019-04-27T11:23:17.845Z,18.37
2019-04-27T11:25:48.717Z,18.34
2019-04-27T11:28:19.518Z,18.34
2019-04-27T11:30:52.022Z,18.34
2019-04-27T11:33:22.538Z,18.54
2019-04-27T11:36:10.543Z,18.28
2019-04-27T11:38:41.400Z,18.10
2019-04-27T11:41:12.191Z,18.24
2019-04-27T11:43:43.070Z,18.07
2019-04-27T11:46:13.611Z,17.80
2019-04-27T11:48:46.487Z,17.94
2019-04-27T11:51:17.481Z,17.92
2019-04-27T11:53:48.658Z,17.98
2019-04-27T11:56:19.486Z,17.95
2019-04-27T11:58:50.235Z,18.24
2019-04-27T12:01:21.151Z,18.33
2019-04-27T12:03:52.108Z,18.30
2019-04-27T12:06:22.927Z,18.36
2019-04-27T12:08:53.682Z,18.46
2019-04-27T12:11:26.096Z,18.35
2019-04-27T12:13:58.892Z,18.43
2019-04-27T12:16:29.785Z,17.89
2019-04-27T12:19:00.655Z,18.06
2019-04-27T12:21:31.557Z,18.20
2019-04-27T12:24:02.487Z,18.46
2019-04-27T12:26:36.248Z,18.39
2019-04-27T12:29:08.871Z,18.43
2019-04-27T12:31:43.812Z,18.41
2019-04-27T12:34:13.934Z,18.46
2019-04-27T12:36:45.898Z,18.48
2019-04-27T12:39:16.947Z,18.50
2019-04-27T12:41:47.744Z,18.41
2019-04-27T12:44:18.170Z,18.40
2019-04-27T12:46:48.921Z,18.40
2019-04-27T12:49:19.745Z,18.34
2019-04-27T12:51:50.491Z,18.27
2019-04-27T12:54:22.950Z,18.39
2019-04-27T12:56:55.848Z,18.10
2019-04-27T12:59:28.527Z,18.23
2019-04-27T13:01:59.523Z,18.36
2019-04-27T13:04:30.287Z,18.53
2019-04-27T13:07:01.065Z,18.70
2019-04-27T13:09:31.607Z,18.92
2019-04-27T13:12:02.403Z,19.02
2019-04-27T13:14:33.253Z,19.03
2019-04-27T13:17:04.181Z,19.01
2019-04-27T13:19:36.564Z,19.20
2019-04-27T13:22:07.597Z,19.06
2019-04-27T13:24:38.433Z,19.15
2019-04-27T13:27:09.275Z,19.15
2019-04-27T13:29:40.011Z,19.20
2019-04-27T13:32:10.883Z,19.11
2019-04-27T13:34:41.671Z,19.16
2019-04-27T13:37:30.545Z,19.16
2019-04-27T13:40:07.061Z,19.40
2019-04-27T13:42:38.055Z,19.62
2019-04-27T13:45:13.739Z,19.72
2019-04-27T13:47:46.404Z,19.91
2019-04-27T13:50:20.105Z,20.06
2019-04-27T13:52:51.045Z,20.04
2019-04-27T13:55:21.851Z,20.08
2019-04-27T13:57:53.509Z,19.92
2019-04-27T14:00:25.531Z,20.02
2019-04-27T14:02:56.044Z,20.04
2019-04-27T14:05:26.840Z,19.82
2019-04-27T14:07:59.074Z,20.01
2019-04-27T14:10:29.888Z,20.02
2019-04-27T14:13:00.797Z,20.02
2019-04-27T14:15:31.643Z,19.89
2019-04-27T14:18:02.509Z,19.95
2019-04-27T14:20:33.723Z,19.84
2019-04-27T14:23:14.885Z,19.84
2019-04-27T14:25:45.379Z,19.82
2019-04-27T14:28:18.232Z,19.95
2019-04-27T14:30:48.647Z,19.81
2019-04-27T14:33:19.677Z,19.72
2019-04-27T14:35:51.947Z,19.54
2019-04-27T14:38:22.779Z,19.56
2019-04-27T14:40:53.357Z,19.71
2019-04-27T14:43:23.775Z,19.74
2019-04-27T14:45:54.697Z,19.64
2019-04-27T14:48:25.175Z,19.72
2019-04-27T14:50:56.013Z,19.88
2019-04-27T14:53:28.130Z,19.90
2019-04-27T14:55:59.258Z,19.87
2019-04-27T14:58:30.095Z,19.63
2019-04-27T15:01:00.932Z,19.75
2019-04-27T15:03:31.759Z,19.51
2019-04-27T15:06:02.599Z,19.71
2019-04-27T15:08:34.093Z,19.70
2019-04-27T15:11:10.248Z,19.31
2019-04-27T15:13:42.126Z,19.32
2019-04-27T15:16:10.015Z,19.69
2019-04-27T15:18:43.735Z,19.80
2019-04-27T15:21:14.779Z,19.81
2019-04-27T15:23:48.214Z,19.28
2019-04-27T15:26:21.863Z,19.29
2019-04-27T15:28:52.203Z,19.22
2019-04-27T15:31:27.057Z,19.34
2019-04-27T15:33:59.406Z,19.05
2019-04-27T15:36:34.541Z,18.92
2019-04-27T15:39:15.411Z,18.79
2019-04-27T15:41:48.547Z,18.63
2019-04-27T15:44:19.438Z,18.40
2019-04-27T15:46:50.306Z,18.41
2019-04-27T15:49:20.764Z,18.53
2019-04-27T15:51:54.885Z,18.31
2019-04-27T15:54:31.903Z,18.12
2019-04-27T15:56:59.771Z,18.05
2019-04-27T15:59:37.290Z,18.21
2019-04-27T16:02:05.554Z,18.18
2019-04-27T16:04:39.539Z,18.18
2019-04-27T16:07:08.839Z,18.33
2019-04-27T16:09:39.580Z,18.13
2019-04-27T16:12:12.853Z,18.10
2019-04-27T16:14:44.129Z,17.98
2019-04-27T16:17:18.044Z,17.86
2019-04-27T16:19:50.227Z,17.89
2019-04-27T16:22:22.622Z,17.94
2019-04-27T16:24:53.592Z,17.96
2019-04-27T16:27:25.957Z,18.06
2019-04-27T16:29:57.872Z,17.94
2019-04-27T16:32:29.093Z,18.00
2019-04-27T16:34:59.928Z,17.98
2019-04-27T16:37:38.817Z,18.07
2019-04-27T16:40:10.799Z,18.06
2019-04-27T16:42:45.335Z,18.08
2019-04-27T16:45:14.268Z,18.10
2019-04-27T16:47:45.148Z,18.13
2019-04-27T16:50:19.743Z,18.12
2019-04-27T16:52:56.533Z,18.14
2019-04-27T16:55:20.866Z,18.09
2019-04-27T16:57:51.822Z,18.11
2019-04-27T17:00:26.536Z,18.06
2019-04-27T17:02:59.884Z,18.08
2019-04-27T17:05:30.866Z,17.99
2019-04-27T17:08:00.291Z,18.16
2019-04-27T17:10:32.900Z,18.08
2019-04-27T17:13:06.303Z,18.02
2019-04-27T17:15:55.154Z,18.00
2019-04-27T17:18:28.498Z,17.85
2019-04-27T17:21:09.989Z,17.83
2019-04-27T17:23:34.278Z,17.81
2019-04-27T17:26:20.147Z,17.63
2019-04-27T17:28:51.220Z,17.60
2019-04-27T17:31:23.828Z,17.56
2019-04-27T17:33:56.271Z,17.65
2019-04-27T17:36:26.728Z,17.70
2019-04-27T17:38:58.326Z,17.68
2019-04-27T17:41:28.916Z,17.65
2019-04-27T17:43:59.902Z,17.42
2019-04-27T17:46:30.748Z,17.36
2019-04-27T17:49:08.460Z,17.50
2019-04-27T17:51:44.137Z,17.38
2019-04-27T17:54:12.182Z,17.42
2019-04-27T17:56:48.758Z,17.39
2019-04-27T17:59:25.886Z,17.24
2019-04-27T18:02:04.703Z,17.26
2019-04-27T18:04:32.853Z,17.32
2019-04-27T18:07:05.300Z,17.34
2019-04-27T18:09:40.005Z,17.22
2019-04-27T18:12:14.919Z,17.08
2019-04-27T18:14:41.363Z,17.03
2019-04-27T18:17:12.360Z,16.94
2019-04-27T18:19:50.626Z,17.00
2019-04-27T18:22:21.562Z,16.87
2019-04-27T18:24:55.665Z,16.87
2019-04-27T18:27:48.177Z,16.85
2019-04-27T18:30:21.295Z,16.92
2019-04-27T18:32:52.098Z,16.86
2019-04-27T18:35:26.156Z,16.80
2019-04-27T18:37:58.399Z,16.81
2019-04-27T18:40:32.074Z,16.71
2019-04-27T18:43:02.016Z,16.71
2019-04-27T18:45:32.071Z,16.72
2019-04-27T18:48:06.667Z,16.71
2019-04-27T18:50:38.576Z,16.73
2019-04-27T18:53:11.272Z,16.77
2019-04-27T18:55:56.793Z,16.75
2019-04-27T18:58:23.965Z,16.78
2019-04-27T19:00:55.077Z,16.80
2019-04-27T19:03:25.995Z,16.76
2019-04-27T19:05:58.142Z,16.72
2019-04-27T19:08:28.794Z,16.54
2019-04-27T19:11:00.792Z,16.36
2019-04-27T19:13:31.561Z,16.28
2019-04-27T19:16:01.945Z,16.12
2019-04-27T19:18:32.832Z,15.86
2019-04-27T19:21:03.672Z,15.83
2019-04-27T19:23:34.423Z,15.72
2019-04-27T19:26:16.126Z,15.59
2019-04-27T19:29:04.871Z,15.50
2019-04-27T19:31:40.209Z,15.30
2019-04-27T19:34:11.021Z,15.38
2019-04-27T19:36:41.860Z,15.32
2019-04-27T19:39:14.093Z,15.20
2019-04-27T19:41:56.740Z,15.20
2019-04-27T19:44:18.701Z,15.16
2019-04-27T19:46:49.837Z,15.08
2019-04-27T19:49:22.318Z,14.94
2019-04-27T19:51:53.133Z,15.04
2019-04-27T19:54:23.885Z,14.95
2019-04-27T19:56:54.948Z,14.91
2019-04-27T19:59:33.427Z,14.86
2019-04-27T20:02:05.985Z,14.76
2019-04-27T20:04:38.553Z,14.77
2019-04-27T20:07:10.639Z,14.72
2019-04-27T20:09:49.940Z,14.73
2019-04-27T20:12:21.389Z,14.69
2019-04-27T20:14:57.933Z,14.64
2019-04-27T20:17:31.266Z,14.68
2019-04-27T20:20:02.869Z,14.60
2019-04-27T20:22:33.680Z,14.60
2019-04-27T20:25:05.859Z,14.54
2019-04-27T20:27:46.191Z,14.60
2019-04-27T20:30:11.621Z,14.55
2019-04-27T20:32:42.469Z,14.52
2019-04-27T20:35:13.297Z,14.53
2019-04-27T20:37:44.119Z,14.54
2019-04-27T20:40:15.492Z,14.53
2019-04-27T20:42:45.938Z,14.46
2019-04-27T20:45:16.745Z,14.44
2019-04-27T20:47:47.478Z,14.44
2019-04-27T20:50:18.324Z,14.43
2019-04-27T20:52:50.712Z,14.42
2019-04-27T20:55:21.768Z,14.31
2019-04-27T20:58:01.057Z,14.23
2019-04-27T21:00:25.043Z,14.28
2019-04-27T21:02:57.434Z,14.28
2019-04-27T21:05:46.373Z,14.18
2019-04-27T21:08:20.368Z,14.19
2019-04-27T21:10:51.618Z,14.11
2019-04-27T21:13:22.467Z,14.07
2019-04-27T21:15:53.307Z,14.00
2019-04-27T21:18:24.039Z,14.02
2019-04-27T21:20:54.798Z,13.96
2019-04-27T21:23:25.531Z,13.98
2019-04-27T21:25:56.475Z,13.98
2019-04-27T21:28:27.309Z,13.98
2019-04-27T21:30:58.236Z,13.92
2019-04-27T21:33:28.789Z,13.90
2019-04-27T21:36:01.332Z,13.90
2019-04-27T21:38:32.395Z,13.86
2019-04-27T21:41:03.225Z,13.81
2019-04-27T21:43:34.157Z,13.80
2019-04-27T21:46:04.981Z,13.80
2019-04-27T21:48:35.822Z,13.79
2019-04-27T21:51:06.609Z,13.79
2019-04-27T21:53:41.737Z,13.76
2019-04-27T21:56:12.651Z,13.65
2019-04-27T21:58:43.349Z,13.71
2019-04-27T22:01:24.687Z,13.73
2019-04-27T22:03:55.519Z,13.62
2019-04-27T22:06:26.456Z,13.60
2019-04-27T22:08:56.991Z,13.62
2019-04-27T22:11:27.957Z,13.60
2019-04-27T22:13:59.045Z,13.64
2019-04-27T22:16:31.487Z,13.62
2019-04-27T22:19:02.346Z,13.64
2019-04-27T22:21:33.336Z,13.62
2019-04-27T22:24:08.662Z,13.58
2019-04-27T22:26:41.354Z,13.54
2019-04-27T22:29:12.184Z,13.59
2019-04-27T22:31:43.220Z,13.50
2019-04-27T22:34:14.059Z,13.51
2019-04-27T22:36:44.867Z,13.48
2019-04-27T22:39:25.990Z,13.52
2019-04-27T22:42:06.916Z,13.52
2019-04-27T22:44:39.422Z,13.41
2019-04-27T22:47:11.434Z,13.40
2019-04-27T22:49:42.701Z,13.43
2019-04-27T22:52:13.529Z,13.33
2019-04-27T22:54:44.310Z,13.22
2019-04-27T22:57:16.765Z,13.30
2019-04-27T22:59:49.248Z,13.25
2019-04-27T23:02:21.854Z,13.24
2019-04-27T23:04:56.735Z,13.22
2019-04-27T23:07:27.119Z,13.16
2019-04-27T23:09:57.907Z,13.11
2019-04-27T23:12:28.722Z,13.08
2019-04-27T23:14:59.591Z,13.08
2019-04-27T23:17:31.958Z,13.04
2019-04-27T23:20:02.687Z,13.03
2019-04-27T23:22:33.541Z,13.04
2019-04-27T23:25:06.538Z,12.96
2019-04-27T23:27:37.336Z,13.04
2019-04-27T23:30:08.556Z,13.10
2019-04-27T23:32:43.736Z,13.00
2019-04-27T23:35:14.756Z,13.02
2019-04-27T23:37:45.460Z,12.97
2019-04-27T23:40:16.653Z,12.90
2019-04-27T23:42:47.612Z,12.88
2019-04-27T23:45:20.497Z,12.75
2019-04-27T23:47:52.310Z,12.76
2019-04-27T23:50:23.171Z,12.74
2019-04-27T23:53:11.879Z,12.66
2019-04-27T23:55:42.650Z,12.56
2019-04-27T23:58:13.490Z,12.60
